Time;durP1;ratioP1;P1;durP2;ratioP2;P2;SDS_P1;SDS_P2;PMS_P1;PMS_P2;Temp;Humidity;BMP_temperature;BMP_pressure;BME280_temperature;BME280_humidity;BME280_pressure;Samples;Min_cycle;Max_cycle;Signal;HPM_P1;HPM_P2
2023/10/29 00:01:52;;;;;;;4.82;2.35;;;;;;;;;;5035948;28;20415;-64
2023/10/29 00:04:19;;;;;;;4.90;2.50;;;;;;;;;;5033097;28;20866;-64
2023/10/29 00:06:46;;;;;;;3.55;2.05;;;;;;;;;;5048690;28;20413;-64
2023/10/29 00:09:13;;;;;;;4.75;2.22;;;;;;;;;;5042178;28;20793;-64
2023/10/29 00:11:40;;;;;;;4.22;2.10;;;;;;;;;;5041598;28;20463;-64
2023/10/29 00:14:07;;;;;;;5.13;2.00;;;;;;;;;;5041928;28;20409;-64
2023/10/29 00:16:36;;;;;;;3.22;2.00;;;;;;;;;;5039693;28;20419;-64
2023/10/29 00:19:03;;;;;;;3.75;2.03;;;;;;;;;;5041731;28;20436;-64
2023/10/29 00:21:34;;;;;;;6.32;2.70;;;;;;;;;;5040234;28;20451;-63
2023/10/29 00:24:01;;;;;;;3.03;2.00;;;;;;;;;;5039864;28;20481;-64
2023/10/29 00:26:28;;;;;;;3.53;1.80;;;;;;;;;;5041545;28;20459;-64
2023/10/29 00:28:55;;;;;;;4.33;1.60;;;;;;;;;;5042076;28;20565;-64
2023/10/29 00:31:22;;;;;;;2.25;1.67;;;;;;;;;;5039334;28;20415;-64
2023/10/29 00:33:50;;;;;;;2.53;1.80;;;;;;;;;;5041067;28;20875;-64
2023/10/29 00:36:17;;;;;;;2.60;1.70;;;;;;;;;;5046672;28;20453;-64
2023/10/29 00:38:44;;;;;;;2.80;1.90;;;;;;;;;;5044336;28;20467;-64
2023/10/29 00:41:11;;;;;;;2.57;1.80;;;;;;;;;;5040411;28;20472;-64
2023/10/29 00:43:41;;;;;;;5.65;1.75;;;;;;;;;;5040727;28;20411;-64
2023/10/29 00:46:09;;;;;;;4.43;1.80;;;;;;;;;;5039812;28;20430;-64
2023/10/29 00:48:36;;;;;;;4.55;2.00;;;;;;;;;;5040588;28;20470;-64
2023/10/29 00:51:05;;;;;;;3.38;1.70;;;;;;;;;;5042211;28;20921;-64
2023/10/29 00:53:32;;;;;;;3.85;1.65;;;;;;;;;;5039635;28;20419;-64
2023/10/29 00:56:00;;;;;;;4.38;1.73;;;;;;;;;;5044055;28;20416;-64
2023/10/29 00:58:27;;;;;;;3.92;1.80;;;;;;;;;;5041697;28;20470;-64
2023/10/29 01:00:54;;;;;;;4.80;1.80;;;;;;;;;;5038548;28;20407;-64
2023/10/29 01:03:22;;;;;;;3.92;1.67;;;;;;;;;;5040240;28;21025;-64
2023/10/29 01:05:50;;;;;;;5.93;1.85;;;;;;;;;;5044485;28;20448;-64
2023/10/29 01:08:18;;;;;;;2.78;1.60;;;;;;;;;;5042034;28;20454;-65
2023/10/29 01:10:45;;;;;;;3.60;1.73;;;;;;;;;;5040217;28;20433;-64
2023/10/29 01:13:13;;;;;;;3.38;1.40;;;;;;;;;;5041528;28;20412;-64
2023/10/29 01:15:40;;;;;;;5.07;1.60;;;;;;;;;;5038860;28;20485;-64
2023/10/29 01:18:07;;;;;;;3.50;1.60;;;;;;;;;;5039927;28;20440;-65
2023/10/29 01:20:34;;;;;;;3.05;1.40;;;;;;;;;;5041329;28;20405;-64
2023/10/29 01:23:02;;;;;;;2.70;1.50;;;;;;;;;;5029930;28;20407;-64
2023/10/29 01:25:31;;;;;;;6.18;1.50;;;;;;;;;;5030177;28;20465;-64
2023/10/29 01:27:59;;;;;;;3.55;1.70;;;;;;;;;;5029950;28;20805;-64
2023/10/29 01:30:26;;;;;;;6.22;1.73;;;;;;;;;;5030256;28;20469;-64
2023/10/29 01:32:53;;;;;;;5.47;1.73;;;;;;;;;;5029285;28;20901;-64
2023/10/29 01:35:20;;;;;;;2.83;1.60;;;;;;;;;;5042908;28;20423;-65
2023/10/29 01:37:48;;;;;;;3.57;1.50;;;;;;;;;;5042269;28;20986;-65
2023/10/29 01:40:15;;;;;;;3.83;1.48;;;;;;;;;;5039740;28;20414;-64
2023/10/29 01:42:45;;;;;;;7.35;1.60;;;;;;;;;;5038344;28;20412;-64
2023/10/29 01:45:14;;;;;;;3.35;1.25;;;;;;;;;;5039349;28;20457;-64
2023/10/29 01:47:41;;;;;;;5.32;1.60;;;;;;;;;;5039127;28;20418;-64
2023/10/29 01:50:09;;;;;;;4.75;1.35;;;;;;;;;;5041111;28;20524;-64
2023/10/29 01:52:38;;;;;;;2.80;1.40;;;;;;;;;;5039142;28;20494;-65
2023/10/29 01:55:05;;;;;;;3.22;1.40;;;;;;;;;;5039248;28;20443;-64
2023/10/29 01:57:32;;;;;;;6.32;1.75;;;;;;;;;;5041858;28;20409;-65
2023/10/29 02:00:02;;;;;;;3.78;1.45;;;;;;;;;;5039334;28;20411;-64
2023/10/29 02:02:29;;;;;;;2.73;1.47;;;;;;;;;;5038531;28;20824;-64
2023/10/29 02:04:56;;;;;;;2.15;1.35;;;;;;;;;;5042114;28;20470;-64
2023/10/29 02:07:23;;;;;;;5.13;1.42;;;;;;;;;;5043505;28;20414;-64
2023/10/29 02:09:51;;;;;;;3.78;1.73;;;;;;;;;;5038911;28;20818;-64
2023/10/29 02:12:18;;;;;;;3.05;1.30;;;;;;;;;;5043525;28;20425;-65
2023/10/29 02:14:45;;;;;;;2.03;1.38;;;;;;;;;;5042023;28;20415;-64
2023/10/29 02:17:13;;;;;;;4.28;1.30;;;;;;;;;;5038960;28;20441;-64
2023/10/29 02:19:40;;;;;;;1.63;1.30;;;;;;;;;;5041181;28;20556;-64
2023/10/29 02:22:08;;;;;;;3.42;1.45;;;;;;;;;;5038954;28;20419;-64
2023/10/29 02:24:35;;;;;;;2.50;1.40;;;;;;;;;;5038582;28;20894;-64
2023/10/29 02:27:02;;;;;;;2.95;1.17;;;;;;;;;;5041000;28;20478;-64
2023/10/29 02:29:29;;;;;;;2.40;1.58;;;;;;;;;;5038962;28;20431;-64
2023/10/29 02:31:56;;;;;;;2.78;1.55;;;;;;;;;;5038755;28;20862;-64
2023/10/29 02:34:23;;;;;;;4.38;1.40;;;;;;;;;;5040966;28;20900;-64
2023/10/29 02:36:50;;;;;;;4.25;1.60;;;;;;;;;;5044067;28;20413;-64
2023/10/29 02:39:19;;;;;;;2.35;1.42;;;;;;;;;;5041219;28;20437;-64
2023/10/29 02:41:46;;;;;;;2.72;1.60;;;;;;;;;;5040934;28;20436;-64
2023/10/29 02:44:13;;;;;;;4.78;1.50;;;;;;;;;;5039731;28;20407;-64
2023/10/29 02:46:40;;;;;;;3.10;1.60;;;;;;;;;;5042145;28;20426;-64
2023/10/29 02:49:07;;;;;;;3.58;1.55;;;;;;;;;;5044334;28;20490;-64
2023/10/29 02:51:34;;;;;;;2.90;1.67;;;;;;;;;;5041902;28;20407;-64
2023/10/29 02:54:01;;;;;;;3.70;1.73;;;;;;;;;;5042716;28;20405;-64
2023/10/29 02:56:30;;;;;;;3.10;1.48;;;;;;;;;;5044318;28;20412;-63
2023/10/29 02:58:57;;;;;;;4.68;1.50;;;;;;;;;;5042138;28;20415;-64
2023/10/29 03:01:24;;;;;;;3.22;1.40;;;;;;;;;;5042281;28;20465;-64
2023/10/29 03:03:52;;;;;;;3.90;1.30;;;;;;;;;;5043902;28;20417;-64
2023/10/29 03:06:18;;;;;;;2.38;1.40;;;;;;;;;;5045698;28;20810;-64
2023/10/29 03:08:45;;;;;;;2.22;1.40;;;;;;;;;;5048402;28;20419;-64
2023/10/29 03:11:12;;;;;;;6.05;1.60;;;;;;;;;;5040914;28;20889;-64
2023/10/29 03:13:41;;;;;;;3.75;1.40;;;;;;;;;;5043658;28;20408;-64
2023/10/29 03:16:08;;;;;;;4.15;1.67;;;;;;;;;;5042596;28;20419;-64
2023/10/29 03:18:35;;;;;;;2.05;1.38;;;;;;;;;;5040784;28;20433;-64
2023/10/29 03:21:02;;;;;;;2.30;1.33;;;;;;;;;;5040817;28;20415;-64
2023/10/29 03:23:29;;;;;;;2.22;1.35;;;;;;;;;;5042309;28;20413;-64
2023/10/29 03:26:02;;;;;;;3.20;1.33;;;;;;;;;;5043476;28;20872;-64
2023/10/29 03:28:29;;;;;;;3.13;1.10;;;;;;;;;;5032277;28;20438;-64
2023/10/29 03:30:57;;;;;;;2.97;1.30;;;;;;;;;;5031573;28;20917;-64
2023/10/29 03:33:24;;;;;;;3.45;1.30;;;;;;;;;;5031965;28;20473;-64
2023/10/29 03:35:51;;;;;;;2.22;1.10;;;;;;;;;;5044234;28;20420;-64
2023/10/29 03:38:18;;;;;;;2.28;1.13;;;;;;;;;;5047986;28;20963;-64
2023/10/29 03:40:45;;;;;;;1.60;1.15;;;;;;;;;;5043348;28;20410;-64
2023/10/29 03:43:12;;;;;;;2.30;1.00;;;;;;;;;;5040917;28;20469;-64
2023/10/29 03:45:39;;;;;;;1.92;1.10;;;;;;;;;;5041183;28;20469;-64
2023/10/29 03:48:08;;;;;;;1.77;1.08;;;;;;;;;;5043150;28;20463;-64
2023/10/29 03:50:35;;;;;;;2.45;1.10;;;;;;;;;;5041029;28;20892;-64
2023/10/29 03:53:02;;;;;;;3.13;1.30;;;;;;;;;;5041290;28;20538;-64
2023/10/29 03:55:29;;;;;;;2.20;1.23;;;;;;;;;;5042811;28;20406;-63
2023/10/29 03:57:56;;;;;;;3.65;1.15;;;;;;;;;;5040375;28;20410;-64
2023/10/29 04:00:23;;;;;;;2.22;1.10;;;;;;;;;;5041340;28;20409;-64
2023/10/29 04:02:50;;;;;;;2.78;1.15;;;;;;;;;;5042532;28;20409;-64
2023/10/29 04:05:19;;;;;;;2.90;1.20;;;;;;;;;;5043590;28;20922;-64
2023/10/29 04:07:46;;;;;;;1.63;1.10;;;;;;;;;;5049626;28;20409;-64
2023/10/29 04:10:13;;;;;;;3.05;1.00;;;;;;;;;;5039771;28;20434;-64
2023/10/29 04:12:40;;;;;;;1.92;0.82;;;;;;;;;;5042137;28;20449;-64
2023/10/29 04:15:08;;;;;;;1.42;0.90;;;;;;;;;;5041719;28;20592;-64
2023/10/29 04:17:35;;;;;;;2.13;0.90;;;;;;;;;;5039817;28;20553;-64
2023/10/29 04:20:02;;;;;;;3.50;1.07;;;;;;;;;;5042172;28;20953;-64
2023/10/29 04:22:31;;;;;;;2.22;0.90;;;;;;;;;;5041233;28;20917;-64
2023/10/29 04:24:58;;;;;;;1.90;0.77;;;;;;;;;;5039732;28;20414;-64
2023/10/29 04:27:25;;;;;;;2.22;0.82;;;;;;;;;;5042066;28;20487;-64
2023/10/29 04:29:52;;;;;;;2.03;0.90;;;;;;;;;;5041432;28;20461;-64
2023/10/29 04:32:19;;;;;;;2.80;0.80;;;;;;;;;;5039790;28;20415;-64
2023/10/29 04:34:46;;;;;;;1.60;0.90;;;;;;;;;;5041874;28;20413;-64
2023/10/29 04:37:13;;;;;;;1.50;0.90;;;;;;;;;;5047155;28;20957;-65
2023/10/29 04:39:42;;;;;;;2.13;1.00;;;;;;;;;;5043133;28;20406;-65
2023/10/29 04:42:09;;;;;;;3.50;1.10;;;;;;;;;;5039650;28;20818;-64
2023/10/29 04:44:36;;;;;;;2.42;0.95;;;;;;;;;;5040745;28;20887;-64
2023/10/29 04:47:03;;;;;;;2.88;0.95;;;;;;;;;;5041951;28;20413;-65
2023/10/29 04:49:30;;;;;;;2.57;0.90;;;;;;;;;;5030977;28;20414;-64
2023/10/29 04:51:57;;;;;;;2.80;1.02;;;;;;;;;;5030765;28;20427;-64
2023/10/29 04:54:24;;;;;;;2.70;0.93;;;;;;;;;;5030551;28;20465;-64
2023/10/29 04:56:53;;;;;;;2.42;0.80;;;;;;;;;;5030447;28;20473;-64
2023/10/29 04:59:20;;;;;;;2.40;0.90;;;;;;;;;;5030675;28;20457;-65
2023/10/29 05:01:47;;;;;;;1.30;0.80;;;;;;;;;;5037836;28;20407;-64
2023/10/29 05:04:14;;;;;;;2.30;0.93;;;;;;;;;;5041853;28;20462;-64
2023/10/29 05:06:41;;;;;;;1.40;0.95;;;;;;;;;;5044969;28;20409;-64
2023/10/29 05:09:08;;;;;;;2.28;0.98;;;;;;;;;;5041775;28;20422;-64
2023/10/29 05:11:35;;;;;;;3.45;0.95;;;;;;;;;;5041314;28;20973;-64
2023/10/29 05:14:04;;;;;;;1.75;0.98;;;;;;;;;;5039994;28;20874;-64
2023/10/29 05:16:31;;;;;;;1.60;0.70;;;;;;;;;;5039222;28;20460;-64
2023/10/29 05:18:59;;;;;;;2.73;1.10;;;;;;;;;;5042288;28;20490;-64
2023/10/29 05:21:27;;;;;;;2.70;1.00;;;;;;;;;;5040425;28;20452;-64
2023/10/29 05:23:54;;;;;;;2.70;1.30;;;;;;;;;;5039454;28;20423;-63
2023/10/29 05:26:21;;;;;;;3.83;1.00;;;;;;;;;;5042240;28;20848;-63
2023/10/29 05:28:48;;;;;;;3.78;0.98;;;;;;;;;;5040227;28;20455;-63
2023/10/29 05:31:17;;;;;;;2.60;0.82;;;;;;;;;;5039113;28;20466;-63
2023/10/29 05:33:44;;;;;;;1.67;1.00;;;;;;;;;;5041353;28;20450;-64
2023/10/29 05:36:11;;;;;;;3.72;0.88;;;;;;;;;;5043346;28;20432;-64
2023/10/29 05:38:38;;;;;;;3.25;1.17;;;;;;;;;;5044477;28;20470;-63
2023/10/29 05:41:05;;;;;;;3.07;1.00;;;;;;;;;;5038518;28;20406;-63
2023/10/29 05:43:34;;;;;;;1.83;0.90;;;;;;;;;;5040238;28;20409;-63
2023/10/29 05:46:01;;;;;;;1.88;0.82;;;;;;;;;;5040282;28;20455;-64
2023/10/29 05:48:30;;;;;;;3.22;0.90;;;;;;;;;;5038559;28;20415;-63
2023/10/29 05:50:57;;;;;;;2.17;1.00;;;;;;;;;;5040367;28;20462;-63
2023/10/29 05:53:24;;;;;;;2.55;0.95;;;;;;;;;;5041193;28;20961;-63
2023/10/29 05:55:51;;;;;;;2.92;1.00;;;;;;;;;;5038918;28;20415;-63
2023/10/29 05:58:18;;;;;;;2.70;0.90;;;;;;;;;;5040809;28;20417;-63
2023/10/29 06:00:45;;;;;;;1.38;0.88;;;;;;;;;;5041613;28;20948;-63
2023/10/29 06:03:12;;;;;;;2.38;1.00;;;;;;;;;;5041486;28;20423;-64
2023/10/29 06:05:40;;;;;;;2.47;1.13;;;;;;;;;;5041619;28;20495;-64
2023/10/29 06:08:07;;;;;;;2.47;0.90;;;;;;;;;;5041583;28;20501;-63
2023/10/29 06:10:34;;;;;;;4.50;1.13;;;;;;;;;;5041157;28;20803;-63
2023/10/29 06:13:01;;;;;;;1.38;0.90;;;;;;;;;;5038800;28;20916;-63
2023/10/29 06:15:28;;;;;;;3.55;1.10;;;;;;;;;;5038940;28;20533;-63
2023/10/29 06:17:55;;;;;;;3.72;1.00;;;;;;;;;;5041288;28;20412;-63
2023/10/29 06:20:22;;;;;;;2.40;0.90;;;;;;;;;;5042872;28;20434;-63
2023/10/29 06:22:51;;;;;;;2.45;1.00;;;;;;;;;;5043107;28;20496;-63
2023/10/29 06:25:18;;;;;;;2.58;0.90;;;;;;;;;;5044789;28;20523;-63
2023/10/29 06:27:45;;;;;;;3.42;1.02;;;;;;;;;;5042722;28;20456;-64
2023/10/29 06:30:12;;;;;;;2.77;1.10;;;;;;;;;;5042501;28;20472;-64
2023/10/29 06:32:39;;;;;;;2.20;1.10;;;;;;;;;;5044191;28;20997;-64
2023/10/29 06:35:07;;;;;;;2.42;0.90;;;;;;;;;;5044568;28;20474;-64
2023/10/29 06:37:34;;;;;;;2.80;1.00;;;;;;;;;;5045953;28;20488;-65
2023/10/29 06:40:03;;;;;;;1.42;0.70;;;;;;;;;;5045279;28;20417;-64
2023/10/29 06:42:30;;;;;;;2.58;0.93;;;;;;;;;;5041865;28;20497;-65
2023/10/29 06:44:57;;;;;;;2.88;0.93;;;;;;;;;;5042497;28;20422;-64
2023/10/29 06:47:24;;;;;;;1.70;0.85;;;;;;;;;;5043887;28;20922;-65
2023/10/29 06:49:51;;;;;;;3.30;0.95;;;;;;;;;;5042073;28;20426;-65
2023/10/29 06:52:18;;;;;;;3.58;0.95;;;;;;;;;;5042208;28;20536;-65
2023/10/29 06:54:45;;;;;;;6.05;0.82;;;;;;;;;;5044520;28;20483;-65
2023/10/29 06:57:13;;;;;;;3.50;1.30;;;;;;;;;;5041248;28;20955;-64
2023/10/29 06:59:40;;;;;;;5.43;0.80;;;;;;;;;;5042411;28;20480;-65
2023/10/29 07:02:07;;;;;;;5.15;1.00;;;;;;;;;;5043652;28;20417;-64
2023/10/29 07:04:34;;;;;;;2.13;0.80;;;;;;;;;;5041920;28;20422;-65
2023/10/29 07:07:02;;;;;;;2.25;0.90;;;;;;;;;;5044965;28;20465;-64
2023/10/29 07:09:29;;;;;;;4.00;0.90;;;;;;;;;;5043766;28;20418;-65
2023/10/29 07:11:56;;;;;;;3.25;0.90;;;;;;;;;;5040974;28;20468;-64
2023/10/29 07:14:24;;;;;;;1.83;0.80;;;;;;;;;;5042879;28;20419;-64
2023/10/29 07:16:51;;;;;;;3.83;1.10;;;;;;;;;;5043874;28;20499;-64
2023/10/29 07:19:18;;;;;;;1.95;1.00;;;;;;;;;;5032417;28;20406;-64
2023/10/29 07:21:45;;;;;;;2.83;0.80;;;;;;;;;;5032217;28;20414;-64
2023/10/29 07:24:12;;;;;;;2.67;1.00;;;;;;;;;;5031120;28;20936;-64
2023/10/29 07:26:39;;;;;;;3.63;0.70;;;;;;;;;;5032367;28;20415;-64
2023/10/29 07:29:07;;;;;;;2.08;0.93;;;;;;;;;;5032111;28;20457;-64
2023/10/29 07:31:36;;;;;;;2.83;1.17;;;;;;;;;;5038945;28;20423;-65
2023/10/29 07:34:03;;;;;;;3.92;0.90;;;;;;;;;;5032018;28;20455;-64
2023/10/29 07:36:30;;;;;;;4.43;1.20;;;;;;;;;;5045438;28;20418;-64
2023/10/29 07:38:57;;;;;;;3.50;1.00;;;;;;;;;;5047017;28;20494;-64
2023/10/29 07:41:24;;;;;;;2.90;0.88;;;;;;;;;;5038554;28;20428;-63
2023/10/29 07:43:51;;;;;;;2.00;0.85;;;;;;;;;;5045819;28;20961;-63
2023/10/29 07:46:20;;;;;;;1.98;0.93;;;;;;;;;;5043962;28;20449;-65
2023/10/29 07:48:48;;;;;;;2.00;0.90;;;;;;;;;;5047284;28;20492;-64
2023/10/29 07:51:15;;;;;;;2.28;0.82;;;;;;;;;;5046002;28;20462;-63
2023/10/29 07:53:42;;;;;;;3.53;1.20;;;;;;;;;;5042610;28;20416;-64
2023/10/29 07:56:09;;;;;;;1.38;0.85;;;;;;;;;;5040131;28;21083;-63
2023/10/29 07:58:36;;;;;;;3.25;0.90;;;;;;;;;;5041657;28;20424;-63
2023/10/29 08:01:04;;;;;;;3.30;1.00;;;;;;;;;;5042469;28;20413;-63
2023/10/29 08:03:31;;;;;;;5.25;1.17;;;;;;;;;;5038827;28;20441;-63
2023/10/29 08:05:59;;;;;;;2.13;1.00;;;;;;;;;;5046084;28;20467;-63
2023/10/29 08:08:26;;;;;;;3.20;1.40;;;;;;;;;;5045987;28;20915;-64
2023/10/29 08:10:53;;;;;;;3.50;1.05;;;;;;;;;;5042628;28;20433;-64
2023/10/29 08:13:20;;;;;;;2.65;0.77;;;;;;;;;;5048120;28;20500;-64
2023/10/29 08:15:47;;;;;;;4.07;1.27;;;;;;;;;;5044641;28;20443;-66
2023/10/29 08:18:14;;;;;;;2.78;1.10;;;;;;;;;;5046388;28;20417;-63
2023/10/29 08:20:41;;;;;;;3.67;1.00;;;;;;;;;;5047506;28;20500;-66
2023/10/29 08:23:10;;;;;;;4.80;1.10;;;;;;;;;;5041229;28;20487;-63
2023/10/29 08:25:37;;;;;;;4.82;1.05;;;;;;;;;;5042879;28;20457;-64
2023/10/29 08:28:04;;;;;;;3.90;1.00;;;;;;;;;;5040157;28;20438;-66
2023/10/29 08:30:31;;;;;;;3.75;1.40;;;;;;;;;;5039847;28;20465;-63
2023/10/29 08:32:58;;;;;;;2.65;1.05;;;;;;;;;;5040288;28;20486;-64
2023/10/29 08:35:25;;;;;;;5.10;0.93;;;;;;;;;;5043536;28;20460;-64
2023/10/29 08:37:52;;;;;;;2.90;1.00;;;;;;;;;;5048777;28;20482;-64
2023/10/29 08:40:20;;;;;;;3.42;1.08;;;;;;;;;;5036466;28;20426;-63
2023/10/29 08:42:47;;;;;;;3.65;1.02;;;;;;;;;;5043645;28;20422;-64
2023/10/29 08:45:14;;;;;;;3.38;1.10;;;;;;;;;;5043550;28;20422;-64
2023/10/29 08:47:41;;;;;;;4.15;1.10;;;;;;;;;;5047282;28;20413;-65
2023/10/29 08:50:09;;;;;;;3.53;1.13;;;;;;;;;;5039566;28;20421;-63
2023/10/29 08:52:37;;;;;;;2.33;0.90;;;;;;;;;;5043377;28;20476;-65
2023/10/29 08:55:04;;;;;;;4.13;1.17;;;;;;;;;;5047833;28;20413;-64
2023/10/29 08:57:34;;;;;;;2.83;0.90;;;;;;;;;;5040723;28;20423;-64
2023/10/29 09:00:01;;;;;;;2.40;0.80;;;;;;;;;;5041648;28;20473;-63
2023/10/29 09:02:28;;;;;;;2.60;0.90;;;;;;;;;;5040641;28;20416;-65
2023/10/29 09:04:57;;;;;;;2.67;0.80;;;;;;;;;;5045431;28;20475;-65
2023/10/29 09:07:25;;;;;;;1.70;0.68;;;;;;;;;;5045820;28;20454;-66
2023/10/29 09:09:52;;;;;;;3.42;0.90;;;;;;;;;;5051976;28;20422;-66
2023/10/29 09:12:19;;;;;;;3.20;1.40;;;;;;;;;;5044040;28;20942;-65
2023/10/29 09:14:47;;;;;;;2.45;0.82;;;;;;;;;;5053544;28;20413;-66
2023/10/29 09:17:14;;;;;;;1.95;0.60;;;;;;;;;;5038775;28;20415;-67
2023/10/29 09:19:41;;;;;;;4.40;1.20;;;;;;;;;;5043864;28;20419;-66
2023/10/29 09:22:08;;;;;;;7.63;2.78;;;;;;;;;;5046467;28;20779;-65
2023/10/29 09:24:36;;;;;;;2.55;1.10;;;;;;;;;;5045456;28;20418;-64
2023/10/29 09:27:03;;;;;;;4.82;2.13;;;;;;;;;;5041335;28;20894;-65
2023/10/29 09:29:32;;;;;;;3.20;1.20;;;;;;;;;;5044314;28;20419;-64
2023/10/29 09:32:04;;;;;;;2.85;1.60;;;;;;;;;;5040711;28;20466;-66
2023/10/29 09:34:32;;;;;;;2.92;1.30;;;;;;;;;;5044955;28;20557;-64
2023/10/29 09:36:59;;;;;;;3.08;1.23;;;;;;;;;;5040874;28;20928;-64
2023/10/29 09:39:26;;;;;;;2.60;1.27;;;;;;;;;;5041531;28;20415;-65
2023/10/29 09:41:54;;;;;;;3.00;1.35;;;;;;;;;;5041424;28;20904;-65
2023/10/29 09:44:22;;;;;;;4.93;1.63;;;;;;;;;;5043380;28;20415;-65
2023/10/29 09:46:53;;;;;;;2.88;0.93;;;;;;;;;;5045308;28;20504;-65
2023/10/29 09:49:22;;;;;;;4.78;1.25;;;;;;;;;;5039928;28;20497;-65
2023/10/29 09:51:49;;;;;;;2.55;1.20;;;;;;;;;;5041964;28;20474;-65
2023/10/29 09:54:16;;;;;;;3.53;1.33;;;;;;;;;;5041940;28;20457;-65
2023/10/29 09:56:43;;;;;;;2.92;1.30;;;;;;;;;;5041550;28;20413;-64
2023/10/29 09:59:10;;;;;;;3.53;1.43;;;;;;;;;;5042303;28;20495;-64
2023/10/29 10:01:37;;;;;;;3.38;1.20;;;;;;;;;;5043385;28;20413;-63
2023/10/29 10:04:04;;;;;;;3.43;1.20;;;;;;;;;;5040535;28;20438;-64
2023/10/29 10:06:34;;;;;;;1.77;0.80;;;;;;;;;;5048926;28;20418;-65
2023/10/29 10:09:02;;;;;;;2.28;1.10;;;;;;;;;;5048523;28;20470;-64
2023/10/29 10:11:29;;;;;;;3.28;1.00;;;;;;;;;;5044352;28;20427;-65
2023/10/29 10:13:56;;;;;;;3.03;1.10;;;;;;;;;;5050217;28;20455;-65
2023/10/29 10:16:23;;;;;;;1.50;0.90;;;;;;;;;;5046684;28;20417;-65
2023/10/29 10:18:52;;;;;;;2.70;1.10;;;;;;;;;;5051695;28;20405;-65
2023/10/29 10:21:20;;;;;;;3.10;1.02;;;;;;;;;;5043814;28;20916;-64
2023/10/29 10:23:49;;;;;;;2.60;1.23;;;;;;;;;;5049060;28;20417;-64
2023/10/29 10:26:18;;;;;;;3.00;1.20;;;;;;;;;;5045657;28;20482;-64
2023/10/29 10:28:55;;;;;;;2.53;1.20;;;;;;;;;;5035292;28;20407;-64
2023/10/29 10:31:23;;;;;;;2.33;1.17;;;;;;;;;;5035797;28;20415;-65
2023/10/29 10:33:50;;;;;;;2.08;1.10;;;;;;;;;;5036748;28;20435;-64
2023/10/29 10:36:32;;;;;;;1.58;1.17;;;;;;;;;;5048432;28;20461;-64
2023/10/29 10:39:00;;;;;;;3.50;1.10;;;;;;;;;;5051923;28;20436;-65
2023/10/29 10:41:39;;;;;;;2.70;1.20;;;;;;;;;;5047595;28;20419;-64
2023/10/29 10:44:09;;;;;;;3.53;1.10;;;;;;;;;;5035279;28;20419;-65
2023/10/29 10:46:36;;;;;;;3.08;1.13;;;;;;;;;;5035678;28;20447;-65
2023/10/29 10:49:04;;;;;;;3.17;1.50;;;;;;;;;;5035852;28;20414;-64
2023/10/29 10:51:32;;;;;;;2.42;1.60;;;;;;;;;;5037721;28;20422;-64
2023/10/29 10:54:02;;;;;;;2.70;1.60;;;;;;;;;;5046536;28;20409;-64
2023/10/29 10:56:29;;;;;;;3.70;1.40;;;;;;;;;;5056315;28;20417;-65
2023/10/29 10:58:58;;;;;;;3.10;1.80;;;;;;;;;;5050282;28;20463;-65
2023/10/29 11:01:26;;;;;;;4.95;2.65;;;;;;;;;;5047945;28;20425;-65
2023/10/29 11:03:53;;;;;;;4.10;1.90;;;;;;;;;;5047635;28;20409;-65
2023/10/29 11:06:21;;;;;;;3.47;2.40;;;;;;;;;;5043280;28;20419;-64
2023/10/29 11:08:48;;;;;;;5.57;2.58;;;;;;;;;;5047890;28;20443;-64
2023/10/29 11:11:17;;;;;;;6.25;3.35;;;;;;;;;;5042962;28;20421;-64
2023/10/29 11:13:44;;;;;;;5.57;2.78;;;;;;;;;;5042535;28;20507;-65
2023/10/29 11:16:22;;;;;;;7.97;4.72;;;;;;;;;;5048768;28;20487;-65
2023/10/29 11:18:49;;;;;;;4.80;2.60;;;;;;;;;;5038893;28;20411;-64
2023/10/29 11:21:30;;;;;;;6.03;3.50;;;;;;;;;;5037846;28;20426;-64
2023/10/29 11:24:12;;;;;;;5.40;3.58;;;;;;;;;;5045434;28;20429;-64
2023/10/29 11:26:41;;;;;;;6.90;4.80;;;;;;;;;;5043717;28;20417;-64
2023/10/29 11:29:08;;;;;;;5.90;4.60;;;;;;;;;;5048573;28;20432;-66
2023/10/29 11:31:35;;;;;;;8.13;4.85;;;;;;;;;;5043452;28;20417;-64
2023/10/29 11:34:17;;;;;;;7.67;6.87;;;;;;;;;;5045749;28;20436;-65
2023/10/29 11:36:44;;;;;;;46.85;43.75;;;;;;;;;;5023373;28;20432;-65
2023/10/29 11:39:31;;;;;;;55.20;51.78;;;;;;;;;;5040940;28;20414;-67
2023/10/29 11:42:00;;;;;;;63.30;59.28;;;;;;;;;;5042769;28;20413;-65
2023/10/29 11:44:28;;;;;;;72.90;68.38;;;;;;;;;;5043332;28;20413;-64
2023/10/29 11:47:02;;;;;;;14.52;8.18;;;;;;;;;;5043060;28;20504;-64
2023/10/29 11:49:30;;;;;;;149.65;140.85;;;;;;;;;;5042240;28;20428;-69
2023/10/29 11:52:01;;;;;;;290.00;273.17;;;;;;;;;;5045990;28;20409;-67
2023/10/29 11:54:28;;;;;;;388.58;365.20;;;;;;;;;;5044877;28;20413;-67
2023/10/29 11:56:57;;;;;;;518.42;485.63;;;;;;;;;;5045509;28;20413;-65
2023/10/29 11:59:25;;;;;;;608.17;563.70;;;;;;;;;;5040117;28;20419;-65
2023/10/29 12:01:53;;;;;;;607.13;560.03;;;;;;;;;;5042685;28;20465;-66
2023/10/29 12:04:20;;;;;;;579.53;534.17;;;;;;;;;;5043974;28;20497;-67
2023/10/29 12:06:47;;;;;;;600.90;553.85;;;;;;;;;;5046482;28;20446;-67
2023/10/29 12:09:15;;;;;;;564.63;519.22;;;;;;;;;;5043018;28;20433;-64
2023/10/29 12:11:42;;;;;;;555.72;510.67;;;;;;;;;;5041764;28;20433;-64
2023/10/29 12:14:09;;;;;;;560.28;514.80;;;;;;;;;;5038161;28;20425;-64
2023/10/29 12:16:38;;;;;;;539.13;494.50;;;;;;;;;;5042191;28;20465;-64
2023/10/29 12:19:06;;;;;;;560.17;514.80;;;;;;;;;;5041342;28;20433;-63
2023/10/29 12:21:33;;;;;;;557.10;511.70;;;;;;;;;;5040967;28;20910;-63
2023/10/29 12:24:04;;;;;;;509.42;465.65;;;;;;;;;;5044075;28;22596;-62
2023/10/29 12:26:31;;;;;;;348.80;326.98;;;;;;;;;;5047954;28;20431;-64
2023/10/29 12:28:58;;;;;;;423.38;395.23;;;;;;;;;;5036853;28;20423;-64
2023/10/29 12:31:25;;;;;;;504.92;469.88;;;;;;;;;;5043206;28;20417;-64
2023/10/29 12:33:57;;;;;;;510.27;473.02;;;;;;;;;;5046541;28;20426;-63
2023/10/29 12:36:24;;;;;;;523.08;483.25;;;;;;;;;;5042219;28;20426;-64
2023/10/29 12:38:51;;;;;;;525.97;483.48;;;;;;;;;;5043266;28;20492;-64
2023/10/29 12:41:27;;;;;;;517.35;474.58;;;;;;;;;;5042609;28;20406;-64
2023/10/29 12:43:54;;;;;;;519.58;475.90;;;;;;;;;;5040839;28;20409;-64
2023/10/29 12:46:22;;;;;;;505.63;462.00;;;;;;;;;;5040754;28;20892;-64
2023/10/29 12:49:00;;;;;;;493.40;450.17;;;;;;;;;;5047553;28;20492;-64
2023/10/29 12:51:27;;;;;;;495.70;451.77;;;;;;;;;;5040251;28;20429;-64
2023/10/29 12:54:09;;;;;;;501.42;457.35;;;;;;;;;;5044510;28;20436;-63
2023/10/29 12:56:48;;;;;;;483.52;440.00;;;;;;;;;;5042068;28;20418;-63
2023/10/29 12:59:17;;;;;;;472.15;428.95;;;;;;;;;;5039665;28;20421;-62
2023/10/29 13:01:48;;;;;;;493.83;450.08;;;;;;;;;;5043966;28;20421;-63
2023/10/29 13:04:16;;;;;;;497.52;453.25;;;;;;;;;;5041564;28;20502;-62
2023/10/29 13:06:43;;;;;;;512.50;468.30;;;;;;;;;;5043941;28;20419;-63
2023/10/29 13:09:12;;;;;;;508.67;464.63;;;;;;;;;;5036999;28;20409;-64
2023/10/29 13:11:39;;;;;;;521.45;476.95;;;;;;;;;;5043792;28;20477;-63
2023/10/29 13:14:06;;;;;;;503.88;459.85;;;;;;;;;;5039458;28;20428;-63
2023/10/29 13:16:34;;;;;;;509.83;465.52;;;;;;;;;;5040253;28;20471;-63
2023/10/29 13:19:01;;;;;;;504.15;460.50;;;;;;;;;;5036110;28;20419;-63
2023/10/29 13:21:30;;;;;;;492.17;448.88;;;;;;;;;;5035998;28;20418;-64
2023/10/29 13:23:57;;;;;;;498.48;454.38;;;;;;;;;;5035855;28;20409;-64
2023/10/29 13:26:24;;;;;;;483.47;440.70;;;;;;;;;;5041916;28;20416;-64
2023/10/29 13:28:51;;;;;;;504.17;460.30;;;;;;;;;;5038895;28;20476;-63
2023/10/29 13:31:18;;;;;;;504.98;461.02;;;;;;;;;;5043503;28;20417;-62
2023/10/29 13:33:47;;;;;;;467.02;424.70;;;;;;;;;;5041522;28;20473;-62
2023/10/29 13:36:14;;;;;;;464.35;422.20;;;;;;;;;;5040087;28;20895;-62
2023/10/29 13:38:43;;;;;;;458.33;416.77;;;;;;;;;;5038827;28;20908;-66
2023/10/29 13:41:17;;;;;;;473.50;431.17;;;;;;;;;;5040969;28;20467;-66
2023/10/29 13:43:44;;;;;;;469.35;427.00;;;;;;;;;;5041544;28;21129;-65
2023/10/29 13:46:12;;;;;;;490.52;448.10;;;;;;;;;;5036992;28;20430;-65
2023/10/29 13:48:39;;;;;;;452.45;411.10;;;;;;;;;;5040256;28;20421;-65
2023/10/29 13:51:08;;;;;;;445.05;403.63;;;;;;;;;;5036576;28;20411;-65
2023/10/29 13:53:35;;;;;;;445.23;404.17;;;;;;;;;;5037610;28;20431;-65
2023/10/29 13:56:07;;;;;;;477.77;434.63;;;;;;;;;;5039114;28;20494;-65
2023/10/29 13:58:34;;;;;;;469.27;427.17;;;;;;;;;;5046617;28;20420;-66
2023/10/29 14:01:02;;;;;;;453.17;411.92;;;;;;;;;;5044232;28;20892;-65
2023/10/29 14:03:29;;;;;;;427.85;387.75;;;;;;;;;;5039709;28;20405;-65
2023/10/29 14:05:56;;;;;;;434.77;394.33;;;;;;;;;;5041503;28;20468;-66
2023/10/29 14:08:23;;;;;;;428.90;388.90;;;;;;;;;;5041587;28;20494;-66
2023/10/29 14:10:51;;;;;;;442.70;401.92;;;;;;;;;;5035356;28;20504;-66
2023/10/29 14:13:19;;;;;;;449.23;408.48;;;;;;;;;;5042865;28;20795;-63
2023/10/29 14:15:46;;;;;;;430.25;390.08;;;;;;;;;;5044521;28;20467;-63
2023/10/29 14:18:13;;;;;;;441.02;400.50;;;;;;;;;;5040671;28;20479;-63
2023/10/29 14:20:40;;;;;;;454.60;413.70;;;;;;;;;;5039344;28;20498;-63
2023/10/29 14:23:07;;;;;;;441.40;400.85;;;;;;;;;;5045101;28;20409;-63
2023/10/29 14:25:34;;;;;;;443.75;403.17;;;;;;;;;;5041370;28;20956;-63
2023/10/29 14:28:02;;;;;;;459.63;418.70;;;;;;;;;;5041512;28;20421;-63
2023/10/29 14:30:30;;;;;;;416.60;376.77;;;;;;;;;;5041461;28;20835;-63
2023/10/29 14:32:57;;;;;;;417.92;377.95;;;;;;;;;;5038597;28;20415;-63
2023/10/29 14:35:24;;;;;;;425.83;385.30;;;;;;;;;;5043372;28;20409;-63
2023/10/29 14:37:52;;;;;;;426.27;386.17;;;;;;;;;;5044154;28;20415;-62